Time;durP1;ratioP1;P1;durP2;ratioP2;P2;SDS_P1;SDS_P2;PMS_P1;PMS_P2;Temp;Humidity;BMP_temperature;BMP_pressure;BME280_temperature;BME280_humidity;BME280_pressure;Samples;Min_cycle;Max_cycle;Signal;HPM_P1;HPM_P2
2022/08/20 00:00:49;;;;;;;18.73;16.83;;;;;;;18.63;100.00;101494.41;5088615;28;20020;-64
2022/08/20 00:03:27;;;;;;;18.50;16.60;;;;;;;18.65;100.00;101483.94;5088887;28;20036;-64
2022/08/20 00:06:02;;;;;;;19.63;17.60;;;;;;;18.63;100.00;101486.56;5089054;28;20528;-64
2022/08/20 00:08:29;;;;;;;18.75;16.77;;;;;;;18.63;100.00;101483.94;5088871;28;20496;-64
2022/08/20 00:10:55;;;;;;;19.60;17.10;;;;;;;18.63;100.00;101480.41;5088436;28;20032;-64
2022/08/20 00:13:42;;;;;;;20.55;18.45;;;;;;;18.61;100.00;101485.66;5089023;28;20055;-64
2022/08/20 00:16:09;;;;;;;19.13;17.27;;;;;;;18.62;100.00;101482.16;5088529;28;20433;-64
2022/08/20 00:18:36;;;;;;;19.50;17.63;;;;;;;18.65;100.00;101481.31;5088910;28;20047;-65
2022/08/20 00:21:07;;;;;;;17.90;16.08;;;;;;;18.65;100.00;101476.94;5088789;28;20085;-65
2022/08/20 00:23:36;;;;;;;19.85;17.80;;;;;;;18.64;100.00;101469.91;5088791;28;20463;-65
2022/08/20 00:26:01;;;;;;;18.50;16.67;;;;;;;18.66;100.00;101473.44;5085543;28;20127;-64
2022/08/20 00:28:27;;;;;;;18.40;16.63;;;;;;;18.68;100.00;101476.06;5077420;28;20023;-64
2022/08/20 00:30:52;;;;;;;19.40;17.45;;;;;;;18.69;100.00;101470.84;5088476;28;20098;-63
2022/08/20 00:33:19;;;;;;;17.50;15.88;;;;;;;18.68;100.00;101476.97;5088766;28;20367;-64
2022/08/20 00:35:48;;;;;;;17.75;16.23;;;;;;;18.68;100.00;101476.06;5087947;28;20068;-64
2022/08/20 00:38:13;;;;;;;18.33;16.48;;;;;;;18.68;100.00;101476.06;5088530;28;20020;-65
2022/08/20 00:40:47;;;;;;;17.95;16.27;;;;;;;18.69;100.00;101468.22;5090526;28;20430;-65
2022/08/20 00:43:27;;;;;;;17.25;15.57;;;;;;;18.71;100.00;101473.47;5092585;28;20056;-65
2022/08/20 00:45:55;;;;;;;18.38;16.50;;;;;;;18.72;100.00;101473.50;5092365;28;20031;-65
2022/08/20 00:48:25;;;;;;;18.40;15.93;;;;;;;18.72;100.00;101478.75;5092630;28;20039;-65
2022/08/20 00:50:55;;;;;;;18.30;16.50;;;;;;;18.69;100.00;101473.47;5092571;28;20077;-64
2022/08/20 00:53:22;;;;;;;19.05;16.90;;;;;;;18.67;100.00;101479.56;5092424;28;20493;-65
2022/08/20 00:55:48;;;;;;;17.60;16.00;;;;;;;18.66;100.00;101468.19;5092498;28;20106;-65
2022/08/20 00:58:14;;;;;;;18.73;16.92;;;;;;;18.64;100.00;101469.03;5092497;28;20032;-65
2022/08/20 01:00:43;;;;;;;18.25;16.17;;;;;;;18.62;100.00;101473.41;5091772;28;20032;-65
2022/08/20 01:03:11;;;;;;;17.77;15.98;;;;;;;18.58;100.00;101476.00;5092505;28;20438;-65
2022/08/20 01:05:39;;;;;;;18.27;16.55;;;;;;;18.60;100.00;101473.41;5092087;28;20044;-65
2022/08/20 01:08:05;;;;;;;17.83;16.02;;;;;;;18.62;100.00;101471.66;5092720;28;20038;-65
2022/08/20 01:10:36;;;;;;;18.85;16.95;;;;;;;18.63;100.00;101476.06;5091992;28;20127;-65
2022/08/20 01:13:08;;;;;;;18.15;16.35;;;;;;;18.65;100.00;101473.44;5092052;28;20036;-65
2022/08/20 01:15:37;;;;;;;18.20;16.40;;;;;;;18.64;100.00;101475.16;5092018;28;20024;-65
2022/08/20 01:18:03;;;;;;;17.35;15.65;;;;;;;18.65;100.00;101476.06;5091818;28;20085;-65
2022/08/20 01:20:32;;;;;;;17.60;15.88;;;;;;;18.65;100.00;101471.69;5091879;28;20028;-65
2022/08/20 01:23:31;;;;;;;18.33;16.52;;;;;;;18.66;100.00;101469.94;5092225;28;20028;-65
2022/08/20 01:25:56;;;;;;;18.27;16.48;;;;;;;18.66;100.00;101477.81;5091594;28;20028;-65
2022/08/20 01:28:28;;;;;;;17.65;15.85;;;;;;;18.64;100.00;101477.78;5092209;28;20044;-65
2022/08/20 01:30:53;;;;;;;18.25;16.35;;;;;;;18.62;100.00;101474.28;5090792;28;20020;-65
2022/08/20 01:33:20;;;;;;;17.40;15.90;;;;;;;18.62;100.00;101476.91;5091869;28;20081;-65
2022/08/20 01:35:46;;;;;;;17.15;15.13;;;;;;;18.64;100.00;101476.91;5091600;28;20564;-65
2022/08/20 01:38:12;;;;;;;19.23;15.48;;;;;;;18.65;100.00;101471.69;5082537;28;20040;-65
2022/08/20 01:40:46;;;;;;;17.17;15.48;;;;;;;18.67;100.00;101474.34;5072993;28;20042;-65
2022/08/20 01:43:12;;;;;;;17.90;16.20;;;;;;;18.68;100.00;101470.81;5091135;28;20040;-65
2022/08/20 01:45:38;;;;;;;18.52;16.83;;;;;;;18.69;100.00;101473.47;5091729;28;20089;-66
2022/08/20 01:48:04;;;;;;;19.95;16.70;;;;;;;18.70;100.00;101470.00;5091711;28;20024;-65
2022/08/20 01:50:31;;;;;;;17.58;15.80;;;;;;;18.68;100.00;101466.47;5090770;28;20023;-65
2022/08/20 01:53:03;;;;;;;19.17;17.10;;;;;;;18.69;100.00;101473.47;5090434;28;20028;-65
2022/08/20 01:55:30;;;;;;;17.65;16.02;;;;;;;18.70;100.00;101474.34;5091234;28;20016;-65
2022/08/20 01:57:56;;;;;;;20.13;16.95;;;;;;;18.71;100.00;101476.97;5091337;28;20026;-65
2022/08/20 02:00:23;;;;;;;19.17;17.25;;;;;;;18.72;100.00;101473.50;5091126;28;20051;-65
2022/08/20 02:02:49;;;;;;;18.83;16.92;;;;;;;18.72;100.00;101473.50;5091191;28;20027;-65
2022/08/20 02:05:15;;;;;;;18.73;16.88;;;;;;;18.72;100.00;101477.88;5090897;28;20387;-65
2022/08/20 02:07:40;;;;;;;18.80;16.90;;;;;;;18.70;100.00;101480.47;5090473;28;20036;-66
2022/08/20 02:10:09;;;;;;;18.25;16.45;;;;;;;18.70;100.00;101480.47;5090838;28;20036;-65
2022/08/20 02:12:35;;;;;;;19.05;17.05;;;;;;;18.70;100.00;101477.88;5090136;28;20024;-65
2022/08/20 02:15:01;;;;;;;20.52;16.15;;;;;;;18.70;100.00;101474.34;5089986;28;20188;-65
2022/08/20 02:17:26;;;;;;;18.75;16.33;;;;;;;18.70;100.00;101474.34;5090257;28;20031;-65
2022/08/20 02:19:57;;;;;;;18.88;16.88;;;;;;;18.68;100.00;101483.94;5090001;28;20024;-65
2022/08/20 02:22:36;;;;;;;18.52;16.60;;;;;;;18.66;100.00;101475.19;5090459;28;20020;-65
2022/08/20 02:25:06;;;;;;;19.33;17.25;;;;;;;18.65;100.00;101483.94;5089912;28;20027;-65
2022/08/20 02:27:31;;;;;;;19.77;17.87;;;;;;;18.63;100.00;101483.94;5090000;28;20051;-65
2022/08/20 02:29:57;;;;;;;20.02;17.92;;;;;;;18.60;100.00;101483.91;5090463;28;20028;-65
2022/08/20 02:32:23;;;;;;;20.67;18.52;;;;;;;18.59;100.00;101479.50;5090143;28;20553;-65
2022/08/20 02:34:48;;;;;;;20.38;17.92;;;;;;;18.59;100.00;101477.78;5089566;28;20435;-65
2022/08/20 02:37:15;;;;;;;26.67;19.08;;;;;;;18.60;100.00;101479.50;5089953;28;20028;-65
2022/08/20 02:39:41;;;;;;;21.00;18.90;;;;;;;18.58;100.00;101483.00;5090219;28;20475;-65
2022/08/20 02:42:08;;;;;;;24.52;21.63;;;;;;;18.56;100.00;101487.34;5089227;28;20391;-65
2022/08/20 02:44:34;;;;;;;22.25;19.88;;;;;;;18.57;100.00;101489.09;5089705;28;20464;-65
2022/08/20 02:47:00;;;;;;;21.85;19.73;;;;;;;18.59;100.00;101492.63;5089810;28;20071;-65
2022/08/20 02:49:26;;;;;;;23.35;21.05;;;;;;;18.59;100.00;101488.25;5089519;28;20028;-65
2022/08/20 02:51:51;;;;;;;24.90;22.33;;;;;;;18.58;100.00;101481.25;5089595;28;20069;-65
2022/08/20 02:54:17;;;;;;;28.73;23.15;;;;;;;18.59;100.00;101500.50;5090090;28;20454;-65
2022/08/20 02:56:42;;;;;;;26.50;23.73;;;;;;;18.58;100.00;101490.88;5089386;28;20057;-65
2022/08/20 02:59:08;;;;;;;26.52;23.77;;;;;;;18.56;100.00;101493.50;5089463;28;20024;-65
2022/08/20 03:01:34;;;;;;;32.10;25.27;;;;;;;18.54;100.00;101492.59;5089552;28;20036;-64
2022/08/20 03:04:00;;;;;;;26.38;23.55;;;;;;;18.53;100.00;101498.69;5089295;28;20047;-65
2022/08/20 03:06:26;;;;;;;25.17;22.48;;;;;;;18.54;100.00;101499.56;5089762;28;20028;-64
2022/08/20 03:08:51;;;;;;;29.15;24.60;;;;;;;18.54;100.00;101499.56;5087613;28;20077;-64
2022/08/20 03:11:17;;;;;;;29.52;25.05;;;;;;;18.53;100.00;101497.84;5089494;28;20031;-64
2022/08/20 03:13:44;;;;;;;31.55;28.00;;;;;;;18.52;100.00;101493.44;5089353;28;20024;-65
2022/08/20 03:16:09;;;;;;;31.67;28.27;;;;;;;18.50;100.00;101489.91;5088605;28;20039;-64
2022/08/20 03:18:38;;;;;;;28.45;25.48;;;;;;;18.50;100.00;101497.78;5089031;28;20020;-65
2022/08/20 03:21:05;;;;;;;28.92;25.83;;;;;;;18.47;100.00;101496.88;5089460;28;20417;-65
2022/08/20 03:23:31;;;;;;;28.27;25.48;;;;;;;18.46;100.00;101492.50;5089389;28;20035;-64
2022/08/20 03:25:57;;;;;;;29.52;26.50;;;;;;;18.46;100.00;101492.50;5088964;28;20020;-65
2022/08/20 03:28:22;;;;;;;28.83;25.83;;;;;;;18.46;100.00;101494.25;5089123;28;20027;-65
2022/08/20 03:30:50;;;;;;;29.83;26.70;;;;;;;18.44;100.00;101494.25;5088243;28;20047;-65
2022/08/20 03:33:16;;;;;;;31.25;27.00;;;;;;;18.43;100.00;101503.00;5089463;28;20060;-65
2022/08/20 03:35:42;;;;;;;29.08;26.10;;;;;;;18.43;100.00;101503.00;5089353;28;20028;-64
2022/08/20 03:38:12;;;;;;;30.25;25.98;;;;;;;18.42;100.00;101506.47;5088727;28;20426;-64
2022/08/20 03:40:37;;;;;;;30.65;27.45;;;;;;;18.41;100.00;101509.97;5088769;28;20031;-65
2022/08/20 03:43:07;;;;;;;31.83;27.40;;;;;;;18.38;100.00;101504.69;5088776;28;20423;-65
2022/08/20 03:45:33;;;;;;;30.33;27.10;;;;;;;18.35;100.00;101509.88;5088987;28;20020;-65
2022/08/20 03:47:58;;;;;;;33.42;29.17;;;;;;;18.33;100.00;101512.50;5088510;28;20024;-65
2022/08/20 03:50:27;;;;;;;33.83;30.25;;;;;;;18.30;100.00;101504.59;5088758;28;20020;-65
2022/08/20 03:52:53;;;;;;;35.72;32.05;;;;;;;18.24;100.00;101512.41;5087940;28;20031;-65
2022/08/20 03:55:21;;;;;;;33.78;30.35;;;;;;;18.23;100.00;101506.28;5088556;28;20123;-64
2022/08/20 03:57:51;;;;;;;34.88;31.30;;;;;;;18.22;100.00;101509.75;5089047;28;20094;-65
2022/08/20 04:00:21;;;;;;;36.85;31.65;;;;;;;18.22;100.00;101508.91;5088425;28;20034;-65
2022/08/20 04:02:46;;;;;;;35.42;31.75;;;;;;;18.20;100.00;101506.25;5088658;28;20032;-65
2022/08/20 04:05:12;;;;;;;33.58;29.80;;;;;;;18.19;100.00;101509.72;5087248;28;20031;-65
2022/08/20 04:07:37;;;;;;;32.53;29.20;;;;;;;18.17;100.00;101516.69;5088003;28;20081;-65
2022/08/20 04:10:06;;;;;;;33.15;29.75;;;;;;;18.14;100.00;101514.03;5088353;28;20063;-65
2022/08/20 04:12:31;;;;;;;30.45;27.48;;;;;;;18.11;100.00;101520.09;5088583;28;20020;-65
2022/08/20 04:14:57;;;;;;;31.40;27.63;;;;;;;18.08;100.00;101524.44;5088844;28;20016;-65
2022/08/20 04:17:23;;;;;;;30.73;27.50;;;;;;;18.07;100.00;101520.06;5092359;28;20023;-65
2022/08/20 04:19:48;;;;;;;29.42;25.20;;;;;;;18.04;100.00;101525.28;5092631;28;20032;-65
2022/08/20 04:22:14;;;;;;;31.40;27.52;;;;;;;18.04;100.00;101522.66;5092629;28;20472;-65
2022/08/20 04:24:41;;;;;;;30.85;25.48;;;;;;;18.00;100.00;101524.34;5092251;28;20076;-65
2022/08/20 04:27:07;;;;;;;28.30;24.95;;;;;;;17.92;100.00;101526.00;5092622;28;20049;-65
2022/08/20 04:29:35;;;;;;;28.83;25.70;;;;;;;17.84;100.00;101524.16;5091386;28;20028;-64
2022/08/20 04:32:04;;;;;;;27.52;24.50;;;;;;;17.81;100.00;101525.88;5090834;28;20527;-64
2022/08/20 04:34:30;;;;;;;29.15;24.00;;;;;;;17.78;100.00;101524.06;5090777;28;20031;-65
2022/08/20 04:36:55;;;;;;;31.88;24.10;;;;;;;17.75;100.00;101530.16;5091025;28;20028;-64
2022/08/20 04:39:22;;;;;;;29.23;24.23;;;;;;;17.73;100.00;101542.38;5090980;28;20057;-65
2022/08/20 04:41:47;;;;;;;28.50;23.92;;;;;;;17.73;100.00;101542.38;5090346;28;20187;-65
2022/08/20 04:44:12;;;;;;;29.20;25.58;;;;;;;17.72;100.00;101540.59;5090642;28;20032;-65
2022/08/20 04:46:39;;;;;;;29.17;25.30;;;;;;;17.69;100.00;101547.53;5089083;28;20028;-65
2022/08/20 04:49:05;;;;;;;33.15;24.05;;;;;;;17.68;100.00;101544.06;5090381;28;20365;-65
2022/08/20 04:51:32;;;;;;;30.27;24.75;;;;;;;17.66;100.00;101551.00;5090371;28;20081;-65
2022/08/20 04:53:59;;;;;;;31.25;27.15;;;;;;;17.60;100.00;101546.56;5092194;28;20020;-65
2022/08/20 04:56:27;;;;;;;35.30;29.15;;;;;;;17.54;100.00;101551.69;5092119;28;20440;-65
2022/08/20 04:58:55;;;;;;;36.03;29.33;;;;;;;17.52;100.00;101559.53;5090493;28;20027;-64
2022/08/20 05:01:22;;;;;;;37.00;30.30;;;;;;;17.55;100.00;101565.69;5090953;28;20058;-65
2022/08/20 05:03:48;;;;;;;33.95;30.58;;;;;;;17.56;100.00;101564.84;5091883;28;20028;-64
2022/08/20 05:06:16;;;;;;;35.90;31.95;;;;;;;17.56;100.00;101567.47;5091846;28;20039;-65
2022/08/20 05:08:42;;;;;;;36.47;32.55;;;;;;;17.57;100.00;101577.97;5091642;28;20020;-64
2022/08/20 05:11:11;;;;;;;34.40;30.83;;;;;;;17.61;100.00;101573.66;5091620;28;20032;-64
2022/08/20 05:13:36;;;;;;;38.35;34.03;;;;;;;17.60;100.00;101569.25;5091106;28;20077;-64
2022/08/20 05:16:03;;;;;;;38.72;34.75;;;;;;;17.61;100.00;101573.66;5091537;28;20024;-65
2022/08/20 05:18:33;;;;;;;39.38;35.42;;;;;;;17.60;100.00;101574.50;5091503;28;20079;-65
2022/08/20 05:21:07;;;;;;;41.67;36.60;;;;;;;17.58;100.00;101576.22;5091292;28;20024;-65
2022/08/20 05:23:35;;;;;;;44.83;38.00;;;;;;;17.56;100.00;101580.56;5091352;28;20039;-65
2022/08/20 05:26:06;;;;;;;43.25;38.60;;;;;;;17.49;100.00;101569.09;5090435;28;20039;-65
2022/08/20 05:28:32;;;;;;;;;;;;;;;17.45;100.00;101572.56;5091736;28;20051;-65
2022/08/20 05:30:59;;;;;;;46.35;40.90;;;;;;;17.42;100.00;101570.75;5090519;28;19957;-65
2022/08/20 05:33:25;;;;;;;52.63;43.20;;;;;;;17.40;100.00;101575.97;5091334;28;20024;-65
2022/08/20 05:35:52;;;;;;;55.22;43.20;;;;;;;17.37;100.00;101575.03;5074538;28;20016;-65
2022/08/20 05:38:20;;;;;;;48.95;41.00;;;;;;;17.40;100.00;101577.69;5054374;28;20029;-65
2022/08/20 05:40:46;;;;;;;48.08;43.03;;;;;;;17.44;100.00;101587.38;5054592;28;20024;-65
2022/08/20 05:43:13;;;;;;;47.53;42.22;;;;;;;17.49;100.00;101590.94;5064317;28;20080;-65
2022/08/20 05:45:40;;;;;;;52.75;43.50;;;;;;;17.55;100.00;101589.28;5058648;28;20032;-65
2022/08/20 05:48:11;;;;;;;50.95;40.42;;;;;;;17.57;100.00;101582.31;5069774;28;20473;-65
2022/08/20 05:50:38;;;;;;;47.53;41.35;;;;;;;17.59;100.00;101580.59;5072165;28;20035;-65
2022/08/20 05:53:04;;;;;;;46.58;41.58;;;;;;;17.60;100.00;101588.50;5068385;28;20028;-65
2022/08/20 05:55:30;;;;;;;50.60;40.88;;;;;;;17.63;100.00;101587.63;5067452;28;20027;-65
2022/08/20 05:57:57;;;;;;;46.10;41.15;;;;;;;17.62;100.00;101591.13;5070369;28;20021;-65
2022/08/20 06:00:23;;;;;;;44.70;40.00;;;;;;;17.60;100.00;101595.47;5070300;28;20377;-65
2022/08/20 06:05:33;;;;;;;52.53;41.40;;;;;;;17.52;100.00;101601.47;5067711;28;20086;-65
2022/08/20 06:07:58;;;;;;;46.58;40.50;;;;;;;17.54;100.00;101603.25;5070591;28;20457;-65
2022/08/20 06:10:24;;;;;;;46.40;41.45;;;;;;;17.54;100.00;101603.25;5069650;28;20028;-65
2022/08/20 06:12:52;;;;;;;53.45;43.47;;;;;;;17.53;100.00;101607.59;5070378;28;20024;-65
2022/08/20 06:15:18;;;;;;;52.53;41.55;;;;;;;17.54;100.00;101603.25;5070391;28;20060;-65
2022/08/20 06:17:44;;;;;;;51.17;40.05;;;;;;;17.52;100.00;101604.09;5057649;28;20035;-65
2022/08/20 06:20:10;;;;;;;46.33;39.70;;;;;;;17.52;100.00;101611.94;5072594;28;20040;-65
2022/08/20 06:22:36;;;;;;;49.70;42.05;;;;;;;17.54;100.00;101608.47;5070388;28;20031;-65
2022/08/20 06:25:02;;;;;;;48.88;41.35;;;;;;;17.56;100.00;101609.41;5058064;28;20408;-65
2022/08/20 06:27:27;;;;;;;52.78;42.40;;;;;;;17.56;100.00;101601.53;5070036;28;20132;-65
2022/08/20 06:29:53;;;;;;;50.45;41.80;;;;;;;17.59;100.00;101606.81;5069867;28;20029;-65
2022/08/20 06:32:21;;;;;;;49.58;41.35;;;;;;;17.59;100.00;101606.81;5069891;28;20392;-65
2022/08/20 06:34:47;;;;;;;50.60;41.72;;;;;;;17.59;100.00;101597.19;5072543;28;20044;-65
2022/08/20 06:37:22;;;;;;;52.83;41.97;;;;;;;17.52;100.00;101598.84;5060999;28;20461;-65
2022/08/20 06:39:48;;;;;;;55.92;44.00;;;;;;;17.52;100.00;101611.94;5066649;28;20028;-65
2022/08/20 06:42:13;;;;;;;49.97;42.08;;;;;;;17.50;100.00;101608.41;5061950;28;20055;-65
2022/08/20 06:44:38;;;;;;;54.67;43.50;;;;;;;17.49;100.00;101605.78;5089428;28;20040;-65
2022/08/20 06:47:05;;;;;;;57.97;43.65;;;;;;;17.51;100.00;101610.19;5075282;28;20110;-65
2022/08/20 06:49:34;;;;;;;53.05;45.80;;;;;;;17.58;100.00;101605.91;5089997;28;20103;-65
2022/08/20 06:52:00;;;;;;;51.25;44.00;;;;;;;17.65;100.00;101604.25;5090005;28;20062;-65
2022/08/20 06:54:25;;;;;;;54.17;44.35;;;;;;;17.74;100.00;101601.78;5089435;28;20059;-65
2022/08/20 06:56:53;;;;;;;56.10;41.42;;;;;;;17.83;100.00;101602.75;5089072;28;20111;-65
2022/08/20 06:59:19;;;;;;;50.05;39.75;;;;;;;17.88;100.00;101603.72;5089914;28;20038;-65
2022/08/20 07:01:45;;;;;;;49.28;41.22;;;;;;;17.91;100.00;101606.38;5089264;28;20024;-64
2022/08/20 07:04:10;;;;;;;46.35;39.60;;;;;;;17.95;100.00;101610.78;5089409;28;20028;-65
2022/08/20 07:06:36;;;;;;;48.42;40.40;;;;;;;17.99;100.00;101606.47;5088959;28;20030;-64
2022/08/20 07:09:01;;;;;;;42.50;37.45;;;;;;;18.04;100.00;101606.56;5081478;28;20039;-65
2022/08/20 07:11:27;;;;;;;47.88;41.10;;;;;;;18.10;100.00;101609.22;5057980;28;20024;-64
2022/08/20 07:13:52;;;;;;;49.10;41.38;;;;;;;18.19;100.00;101617.25;5067641;28;20031;-65
2022/08/20 07:16:17;;;;;;;51.13;41.38;;;;;;;18.30;100.00;101617.41;5068145;28;20024;-65
2022/08/20 07:18:43;;;;;;;45.03;37.20;;;;;;;18.40;100.00;101610.53;5068942;28;20032;-65
2022/08/20 07:21:08;;;;;;;40.28;35.90;;;;;;;18.50;100.00;101618.47;5073109;28;20016;-65
2022/08/20 07:23:35;;;;;;;42.77;38.17;;;;;;;18.55;100.00;101622.91;5068736;28;20056;-65
2022/08/20 07:26:00;;;;;;;42.40;37.70;;;;;;;18.55;100.00;101617.69;5068396;28;20032;-65
2022/08/20 07:28:27;;;;;;;40.00;35.60;;;;;;;18.62;100.00;101625.63;5068342;28;20093;-65
2022/08/20 07:33:39;;;;;;;41.28;37.03;;;;;;;18.64;100.00;101632.63;5059771;28;20044;-66
2022/08/20 07:36:05;;;;;;;40.92;36.42;;;;;;;18.69;100.00;101630.94;5068217;28;20108;-65
2022/08/20 07:38:32;;;;;;;39.30;35.13;;;;;;;18.72;100.00;101633.63;5068421;28;20044;-65
2022/08/20 07:41:04;;;;;;;37.75;33.13;;;;;;;18.78;100.00;101638.03;5082341;28;20038;-65
2022/08/20 07:43:31;;;;;;;37.50;33.78;;;;;;;18.84;100.00;101647.72;5088540;28;20491;-65
2022/08/20 07:46:00;;;;;;;38.88;34.20;;;;;;;18.88;100.00;101646.91;5088686;28;20020;-65
2022/08/20 07:48:28;;;;;;;34.33;30.90;;;;;;;18.92;100.00;101643.44;5088294;28;20028;-65
2022/08/20 07:50:55;;;;;;;36.78;32.88;;;;;;;18.94;100.00;101649.56;5088037;28;20023;-65
2022/08/20 07:53:20;;;;;;;36.08;32.28;;;;;;;19.09;100.00;101650.59;5088619;28;20028;-65
2022/08/20 07:55:45;;;;;;;32.53;29.17;;;;;;;19.40;100.00;101656.16;5083139;28;20023;-65
2022/08/20 07:58:14;;;;;;;33.47;29.70;;;;;;;19.74;100.00;101658.13;5079532;28;20028;-65
2022/08/20 08:00:40;;;;;;;34.78;29.80;;;;;;;20.20;100.00;101666.31;5088546;28;20111;-65
2022/08/20 08:03:06;;;;;;;28.58;25.75;;;;;;;20.69;100.00;101662.97;5088561;28;20165;-65
2022/08/20 08:05:34;;;;;;;27.95;25.15;;;;;;;21.17;100.00;101666.63;5088621;28;20032;-65
2022/08/20 08:08:00;;;;;;;24.42;21.98;;;;;;;21.62;100.00;101660.44;5087826;28;20028;-65
2022/08/20 08:10:26;;;;;;;26.55;23.85;;;;;;;22.03;100.00;101666.53;5074303;28;20028;-65
2022/08/20 08:12:56;;;;;;;22.17;19.92;;;;;;;22.42;100.00;101659.34;5088426;28;20031;-65
2022/08/20 08:15:26;;;;;;;23.50;19.95;;;;;;;22.72;97.59;101667.13;5087897;28;20928;-65
2022/08/20 08:17:55;;;;;;;21.50;19.33;;;;;;;22.89;94.12;101663.50;5088318;28;20077;-66
2022/08/20 08:20:21;;;;;;;17.50;15.65;;;;;;;23.15;96.50;101659.81;5088772;28;20364;-66
2022/08/20 08:22:47;;;;;;;16.17;13.75;;;;;;;23.14;88.23;101663.34;5088148;28;20024;-65
2022/08/20 08:25:14;;;;;;;18.00;14.20;;;;;;;23.06;87.20;101665.16;5088551;28;20031;-66
2022/08/20 08:27:40;;;;;;;16.15;14.45;;;;;;;22.83;91.79;101663.56;5088003;28;20028;-65
2022/08/20 08:30:07;;;;;;;17.88;15.18;;;;;;;22.42;93.40;101669.03;5088045;28;20032;-65
2022/08/20 08:32:35;;;;;;;17.90;14.75;;;;;;;22.09;96.16;101670.94;5088370;28;20028;-65
2022/08/20 08:35:07;;;;;;;15.30;13.82;;;;;;;22.04;98.38;101676.19;5088526;28;20032;-66
2022/08/20 08:37:33;;;;;;;14.88;13.38;;;;;;;22.01;92.66;101671.81;5088269;28;20032;-65
2022/08/20 08:40:00;;;;;;;18.08;14.98;;;;;;;22.22;95.62;101671.78;5087721;28;20035;-65
2022/08/20 08:42:34;;;;;;;15.43;13.05;;;;;;;22.49;92.86;101676.03;5087280;28;20070;-66
2022/08/20 08:45:03;;;;;;;17.50;13.63;;;;;;;22.86;92.01;101674.09;5086264;28;20039;-65
2022/08/20 08:47:35;;;;;;;14.57;10.48;;;;;;;23.08;86.76;101687.19;5087084;28;20023;-66
2022/08/20 08:50:01;;;;;;;16.33;10.45;;;;;;;23.08;83.55;101688.03;5086838;28;20063;-65
2022/08/20 08:52:30;;;;;;;11.55;10.35;;;;;;;23.10;85.04;101693.31;5086794;28;20020;-66
2022/08/20 08:55:00;;;;;;;12.18;9.45;;;;;;;23.20;82.83;101689.72;5087007;28;20039;-66
2022/08/20 08:57:27;;;;;;;8.82;7.32;;;;;;;23.39;77.79;101689.56;5086825;28;20074;-66
2022/08/20 09:00:00;;;;;;;10.10;8.48;;;;;;;23.60;80.05;101685.03;5087129;28;20024;-66
2022/08/20 09:02:29;;;;;;;10.00;6.50;;;;;;;23.82;78.01;101682.13;5090086;28;20243;-66
2022/08/20 09:04:59;;;;;;;11.23;7.25;;;;;;;24.05;75.61;101687.19;5090504;28;20031;-66
2022/08/20 09:07:28;;;;;;;10.73;6.53;;;;;;;24.28;70.76;101685.19;5090245;28;20065;-66
2022/08/20 09:09:54;;;;;;;9.25;6.78;;;;;;;24.36;69.63;101683.31;5090591;28;20028;-66
2022/08/20 09:12:23;;;;;;;9.00;7.00;;;;;;;24.37;70.74;101685.09;5090406;28;20444;-66
2022/08/20 09:14:50;;;;;;;9.93;5.78;;;;;;;24.58;72.59;101696.28;5090703;28;20016;-66
2022/08/20 09:17:19;;;;;;;12.35;7.25;;;;;;;24.67;66.65;101690.88;5090327;28;20391;-66
2022/08/20 09:19:44;;;;;;;7.03;5.38;;;;;;;24.78;70.65;101695.13;5090421;28;20031;-66
2022/08/20 09:22:17;;;;;;;6.22;4.75;;;;;;;24.97;72.21;101694.91;5090509;28;20032;-66
2022/08/20 09:24:43;;;;;;;10.68;6.63;;;;;;;24.97;69.47;101690.44;5089978;28;20135;-66
2022/08/20 09:27:09;;;;;;;10.27;5.15;;;;;;;24.98;67.82;101692.22;5090380;28;20055;-66
2022/08/20 09:29:35;;;;;;;11.18;6.82;;;;;;;24.83;66.13;101682.69;5090473;28;20036;-66
2022/08/20 09:32:19;;;;;;;8.30;5.78;;;;;;;24.81;68.24;101690.66;5090010;28;20040;-66
2022/08/20 09:34:50;;;;;;;8.52;5.20;;;;;;;24.87;64.98;101695.00;5089511;28;20494;-66
2022/08/20 09:37:16;;;;;;;7.80;4.78;;;;;;;24.97;64.85;101689.59;5090479;28;20028;-66
2022/08/20 09:39:42;;;;;;;9.15;5.15;;;;;;;24.99;64.21;101688.66;5090337;28;20061;-66
2022/08/20 09:42:13;;;;;;;10.70;6.32;;;;;;;25.17;66.82;101683.97;5089750;28;20082;-66
2022/08/20 09:44:39;;;;;;;11.07;6.22;;;;;;;25.27;67.00;101684.69;5089676;28;20030;-66
2022/08/20 09:47:04;;;;;;;8.65;4.90;;;;;;;25.34;66.79;101680.16;5089477;28;20020;-66
2022/08/20 09:49:29;;;;;;;6.50;4.47;;;;;;;25.31;65.65;101683.75;5089416;28;20028;-66
2022/08/20 09:51:56;;;;;;;8.63;5.10;;;;;;;25.35;66.05;101690.75;5089608;28;20035;-66
2022/08/20 09:54:21;;;;;;;5.95;3.75;;;;;;;25.37;63.46;101686.28;5089971;28;20035;-66
2022/08/20 09:56:47;;;;;;;9.10;4.28;;;;;;;25.46;63.64;101689.69;5089754;28;20067;-65
2022/08/20 09:59:14;;;;;;;8.30;4.82;;;;;;;25.57;65.32;101681.53;5090143;28;20472;-65
2022/08/20 10:01:40;;;;;;;7.80;5.22;;;;;;;25.49;63.85;101685.19;5089636;28;20036;-64
2022/08/20 10:04:06;;;;;;;6.75;3.88;;;;;;;25.18;57.12;101689.25;5087543;28;20446;-65
2022/08/20 10:06:38;;;;;;;6.38;3.42;;;;;;;24.86;60.53;101687.09;5089582;28;20040;-65
2022/08/20 10:09:03;;;;;;;7.38;4.57;;;;;;;24.58;62.95;101693.63;5089459;28;20429;-65
2022/08/20 10:11:28;;;;;;;5.93;3.60;;;;;;;24.62;63.58;101692.72;5089708;28;20028;-65
2022/08/20 10:13:54;;;;;;;7.32;3.95;;;;;;;24.78;63.13;101681.88;5088386;28;20032;-64
2022/08/20 10:16:19;;;;;;;7.13;3.80;;;;;;;24.99;62.67;101685.16;5088904;28;20473;-66
2022/08/20 10:18:44;;;;;;;3.92;2.63;;;;;;;25.20;62.00;101691.00;5089763;28;20020;-65
2022/08/20 10:21:11;;;;;;;6.07;2.63;;;;;;;25.35;56.01;101689.84;5089344;28;20019;-65
2022/08/20 10:23:36;;;;;;;5.22;1.73;;;;;;;25.39;55.89;101679.19;5089676;28;20034;-65
2022/08/20 10:26:02;;;;;;;3.55;1.83;;;;;;;25.60;56.97;101685.00;5086331;28;20162;-65
2022/08/20 10:28:27;;;;;;;6.93;2.90;;;;;;;25.74;56.37;101687.44;5078155;28;20396;-65
2022/08/20 10:30:53;;;;;;;4.63;2.28;;;;;;;25.78;56.82;101677.63;5088396;28;20074;-66
2022/08/20 10:33:18;;;;;;;5.28;2.50;;;;;;;25.92;55.68;101684.47;5089003;28;20093;-65
2022/08/20 10:35:44;;;;;;;12.35;3.00;;;;;;;25.77;53.34;101681.19;5088925;28;20034;-65
2022/08/20 10:38:09;;;;;;;9.07;3.28;;;;;;;25.74;54.81;101681.28;5088726;28;20016;-64
2022/08/20 10:40:34;;;;;;;5.10;2.75;;;;;;;25.89;56.66;101680.97;5088689;28;20051;-66
2022/08/20 10:43:00;;;;;;;5.82;2.85;;;;;;;26.04;54.80;101689.53;5088096;28;20121;-66
2022/08/20 10:45:25;;;;;;;5.32;3.00;;;;;;;26.12;54.73;101687.59;5088693;28;20452;-66
2022/08/20 10:47:50;;;;;;;8.20;3.08;;;;;;;26.07;56.22;101689.47;5088602;28;20445;-65
2022/08/20 10:50:18;;;;;;;8.90;3.10;;;;;;;25.80;57.88;101689.09;5087841;28;20031;-66
2022/08/20 10:52:44;;;;;;;9.20;3.70;;;;;;;25.57;57.66;101695.69;5088691;28;20510;-65
2022/08/20 10:55:10;;;;;;;7.78;3.40;;;;;;;25.33;57.80;101689.88;5089082;28;20293;-65
2022/08/20 10:57:37;;;;;;;6.63;3.10;;;;;;;25.12;59.79;101688.47;5088437;28;20035;-66
2022/08/20 11:00:05;;;;;;;7.38;3.28;;;;;;;25.01;59.48;101691.28;5088118;28;20069;-66
2022/08/20 11:02:30;;;;;;;5.03;3.03;;;;;;;24.98;60.62;101688.69;5088487;28;20028;-65
2022/08/20 11:04:56;;;;;;;6.38;2.65;;;;;;;25.00;60.42;101690.44;5088182;28;20476;-65
2022/08/20 11:07:30;;;;;;;5.55;3.15;;;;;;;24.96;60.65;101694.03;5087703;28;20104;-65
2022/08/20 11:09:56;;;;;;;8.20;3.47;;;;;;;24.78;61.05;101696.00;5088174;28;20103;-65
2022/08/20 11:12:22;;;;;;;5.93;3.00;;;;;;;24.56;59.15;101691.00;5088091;28;20427;-64